sensor_id;sensor_type;location;lat;lon;timestamp;temperature;humidity
9658;DHT22;4867;48.112;11.622;2024-01-30T00:00:34;0.60;99.90
9658;DHT22;4867;48.112;11.622;2024-01-30T00:03:02;0.70;99.90
9658;DHT22;4867;48.112;11.622;2024-01-30T00:05:29;0.70;99.90
9658;DHT22;4867;48.112;11.622;2024-01-30T00:07:57;0.60;99.90
9658;DHT22;4867;48.112;11.622;2024-01-30T00:10:24;0.60;99.90
9658;DHT22;4867;48.112;11.622;2024-01-30T00:12:51;0.70;99.90
9658;DHT22;4867;48.112;11.622;2024-01-30T00:15:20;0.60;99.90
9658;DHT22;4867;48.112;11.622;2024-01-30T00:17:47;0.70;99.90
9658;DHT22;4867;48.112;11.622;2024-01-30T00:20:15;0.60;99.90
9658;DHT22;4867;48.112;11.622;2024-01-30T00:22:42;0.60;99.90
9658;DHT22;4867;48.112;11.622;2024-01-30T00:25:09;0.60;99.90
9658;DHT22;4867;48.112;11.622;2024-01-30T00:27:37;0.60;99.90
9658;DHT22;4867;48.112;11.622;2024-01-30T00:30:05;0.50;99.90
9658;DHT22;4867;48.112;11.622;2024-01-30T00:32:32;0.50;99.90
9658;DHT22;4867;48.112;11.622;2024-01-30T00:35:00;0.50;99.90
9658;DHT22;4867;48.112;11.622;2024-01-30T00:37:27;0.40;99.90
9658;DHT22;4867;48.112;11.622;2024-01-30T00:39:54;0.40;99.90
9658;DHT22;4867;48.112;11.622;2024-01-30T00:42:22;0.40;99.90
9658;DHT22;4867;48.112;11.622;2024-01-30T00:44:50;0.40;99.90
9658;DHT22;4867;48.112;11.622;2024-01-30T00:47:18;0.40;99.90
9658;DHT22;4867;48.112;11.622;2024-01-30T00:49:45;0.40;99.90
9658;DHT22;4867;48.112;11.622;2024-01-30T00:52:13;0.40;99.90
9658;DHT22;4867;48.112;11.622;2024-01-30T00:54:40;0.30;99.90
9658;DHT22;4867;48.112;11.622;2024-01-30T00:57:07;0.40;99.90
9658;DHT22;4867;48.112;11.622;2024-01-30T00:59:35;0.30;99.90
9658;DHT22;4867;48.112;11.622;2024-01-30T01:02:03;0.20;99.90
9658;DHT22;4867;48.112;11.622;2024-01-30T01:04:31;0.30;99.90
9658;DHT22;4867;48.112;11.622;2024-01-30T01:06:58;0.30;99.90
9658;DHT22;4867;48.112;11.622;2024-01-30T01:09:26;0.30;99.90
9658;DHT22;4867;48.112;11.622;2024-01-30T01:11:53;0.20;99.90
9658;DHT22;4867;48.112;11.622;2024-01-30T01:14:21;0.40;99.90
9658;DHT22;4867;48.112;11.622;2024-01-30T01:16:51;0.60;99.90
9658;DHT22;4867;48.112;11.622;2024-01-30T01:19:34;0.20;99.90
9658;DHT22;4867;48.112;11.622;2024-01-30T01:22:09;0.20;99.90
9658;DHT22;4867;48.112;11.622;2024-01-30T01:24:40;0.20;99.90
9658;DHT22;4867;48.112;11.622;2024-01-30T01:27:09;0.20;99.90
9658;DHT22;4867;48.112;11.622;2024-01-30T01:29:37;0.20;99.90
9658;DHT22;4867;48.112;11.622;2024-01-30T01:32:07;0.10;99.90
9658;DHT22;4867;48.112;11.622;2024-01-30T01:34:38;0.20;99.90
9658;DHT22;4867;48.112;11.622;2024-01-30T01:37:05;0.20;99.90
9658;DHT22;4867;48.112;11.622;2024-01-30T01:39:34;0.10;99.90
9658;DHT22;4867;48.112;11.622;2024-01-30T01:42:01;0.10;99.90
9658;DHT22;4867;48.112;11.622;2024-01-30T01:44:29;0.10;99.90
9658;DHT22;4867;48.112;11.622;2024-01-30T01:46:57;0.00;99.90
9658;DHT22;4867;48.112;11.622;2024-01-30T01:49:25;0.00;99.90
9658;DHT22;4867;48.112;11.622;2024-01-30T01:51:55;0.00;99.90
9658;DHT22;4867;48.112;11.622;2024-01-30T01:54:31;0.00;99.90
9658;DHT22;4867;48.112;11.622;2024-01-30T01:57:01;0.00;99.90
9658;DHT22;4867;48.112;11.622;2024-01-30T01:59:28;-0.10;99.90
9658;DHT22;4867;48.112;11.622;2024-01-30T02:01:56;-0.10;99.90
9658;DHT22;4867;48.112;11.622;2024-01-30T02:04:24;-0.10;99.90
9658;DHT22;4867;48.112;11.622;2024-01-30T02:06:53;-0.10;99.90
9658;DHT22;4867;48.112;11.622;2024-01-30T02:09:31;-0.20;99.90
9658;DHT22;4867;48.112;11.622;2024-01-30T02:12:06;-0.20;99.90
9658;DHT22;4867;48.112;11.622;2024-01-30T02:14:52;-0.20;99.90
9658;DHT22;4867;48.112;11.622;2024-01-30T02:17:21;-0.10;99.90
9658;DHT22;4867;48.112;11.622;2024-01-30T02:19:51;-0.20;99.90
9658;DHT22;4867;48.112;11.622;2024-01-30T02:22:20;-0.20;99.90
9658;DHT22;4867;48.112;11.622;2024-01-30T02:24:47;-0.20;99.90
9658;DHT22;4867;48.112;11.622;2024-01-30T02:27:15;-0.20;99.90
9658;DHT22;4867;48.112;11.622;2024-01-30T02:29:42;-0.20;99.90
9658;DHT22;4867;48.112;11.622;2024-01-30T02:32:10;-0.30;99.90
9658;DHT22;4867;48.112;11.622;2024-01-30T02:34:37;-0.30;99.90
9658;DHT22;4867;48.112;11.622;2024-01-30T02:37:05;-0.40;99.90
9658;DHT22;4867;48.112;11.622;2024-01-30T02:39:32;-0.40;99.90
9658;DHT22;4867;48.112;11.622;2024-01-30T02:41:59;-0.40;99.90
9658;DHT22;4867;48.112;11.622;2024-01-30T02:44:27;-0.50;99.90
9658;DHT22;4867;48.112;11.622;2024-01-30T02:46:54;-0.60;99.90
9658;DHT22;4867;48.112;11.622;2024-01-30T02:49:22;-0.60;99.90
9658;DHT22;4867;48.112;11.622;2024-01-30T02:51:50;-0.60;99.90
9658;DHT22;4867;48.112;11.622;2024-01-30T02:54:18;-0.60;99.90
9658;DHT22;4867;48.112;11.622;2024-01-30T02:56:45;-0.60;99.90
9658;DHT22;4867;48.112;11.622;2024-01-30T02:59:12;-0.60;99.90
9658;DHT22;4867;48.112;11.622;2024-01-30T03:01:43;-0.60;99.90
9658;DHT22;4867;48.112;11.622;2024-01-30T03:04:12;-0.60;99.90
9658;DHT22;4867;48.112;11.622;2024-01-30T03:06:45;-0.60;99.90
9658;DHT22;4867;48.112;11.622;2024-01-30T03:09:13;-0.60;99.90
9658;DHT22;4867;48.112;11.622;2024-01-30T03:11:40;-0.60;99.90
9658;DHT22;4867;48.112;11.622;2024-01-30T03:14:08;-0.60;99.90
9658;DHT22;4867;48.112;11.622;2024-01-30T03:16:38;-0.60;99.90
9658;DHT22;4867;48.112;11.622;2024-01-30T03:19:08;-0.60;99.90
9658;DHT22;4867;48.112;11.622;2024-01-30T03:21:36;-0.60;99.90
9658;DHT22;4867;48.112;11.622;2024-01-30T03:24:04;-0.70;99.90
9658;DHT22;4867;48.112;11.622;2024-01-30T03:26:31;-0.60;99.90
9658;DHT22;4867;48.112;11.622;2024-01-30T03:28:59;-0.60;99.90
9658;DHT22;4867;48.112;11.622;2024-01-30T03:31:26;-0.60;99.90
9658;DHT22;4867;48.112;11.622;2024-01-30T03:33:53;-0.60;99.90
9658;DHT22;4867;48.112;11.622;2024-01-30T03:36:21;-0.60;99.90
9658;DHT22;4867;48.112;11.622;2024-01-30T03:38:48;-0.60;99.90
9658;DHT22;4867;48.112;11.622;2024-01-30T03:41:16;-0.50;99.90
9658;DHT22;4867;48.112;11.622;2024-01-30T03:43:43;-0.60;99.90
9658;DHT22;4867;48.112;11.622;2024-01-30T03:46:12;-0.50;99.90
9658;DHT22;4867;48.112;11.622;2024-01-30T03:48:39;-0.60;99.90
9658;DHT22;4867;48.112;11.622;2024-01-30T03:51:07;-0.70;99.90
9658;DHT22;4867;48.112;11.622;2024-01-30T03:53:34;-0.70;99.90
9658;DHT22;4867;48.112;11.622;2024-01-30T03:56:02;-0.60;99.90
9658;DHT22;4867;48.112;11.622;2024-01-30T03:58:30;-0.60;99.90
9658;DHT22;4867;48.112;11.622;2024-01-30T04:00:57;-0.60;99.90
9658;DHT22;4867;48.112;11.622;2024-01-30T04:03:25;-0.60;99.90
9658;DHT22;4867;48.112;11.622;2024-01-30T04:05:53;-0.60;99.90
9658;DHT22;4867;48.112;11.622;2024-01-30T04:08:20;-0.60;99.90
9658;DHT22;4867;48.112;11.622;2024-01-30T04:10:48;-0.60;99.90
9658;DHT22;4867;48.112;11.622;2024-01-30T04:13:15;-0.70;99.90
9658;DHT22;4867;48.112;11.622;2024-01-30T04:15:43;-0.70;99.90
9658;DHT22;4867;48.112;11.622;2024-01-30T04:18:10;-0.70;99.90
9658;DHT22;4867;48.112;11.622;2024-01-30T04:20:38;-0.60;99.90
9658;DHT22;4867;48.112;11.622;2024-01-30T04:23:05;-0.60;99.90
9658;DHT22;4867;48.112;11.622;2024-01-30T04:25:33;-0.60;99.90
9658;DHT22;4867;48.112;11.622;2024-01-30T04:28:01;-0.60;99.90
9658;DHT22;4867;48.112;11.622;2024-01-30T04:30:28;-0.60;99.90
9658;DHT22;4867;48.112;11.622;2024-01-30T04:32:56;-0.50;99.90
9658;DHT22;4867;48.112;11.622;2024-01-30T04:35:27;-0.50;99.90
9658;DHT22;4867;48.112;11.622;2024-01-30T04:37:54;-0.30;99.90
9658;DHT22;4867;48.112;11.622;2024-01-30T04:40:22;-0.50;99.90
9658;DHT22;4867;48.112;11.622;2024-01-30T04:42:49;-0.50;99.90
9658;DHT22;4867;48.112;11.622;2024-01-30T04:45:17;-0.60;99.90
9658;DHT22;4867;48.112;11.622;2024-01-30T04:47:45;-0.60;99.90
9658;DHT22;4867;48.112;11.622;2024-01-30T04:50:13;-0.70;99.90
9658;DHT22;4867;48.112;11.622;2024-01-30T04:52:40;-0.70;99.90
9658;DHT22;4867;48.112;11.622;2024-01-30T04:55:08;-0.60;99.90
9658;DHT22;4867;48.112;11.622;2024-01-30T04:57:36;-0.70;99.90
9658;DHT22;4867;48.112;11.622;2024-01-30T05:00:04;-0.70;99.90
9658;DHT22;4867;48.112;11.622;2024-01-30T05:02:32;-0.70;99.90
9658;DHT22;4867;48.112;11.622;2024-01-30T05:05:00;-0.70;99.90
9658;DHT22;4867;48.112;11.622;2024-01-30T05:07:27;-0.70;99.90
9658;DHT22;4867;48.112;11.622;2024-01-30T05:09:55;-0.70;99.90
9658;DHT22;4867;48.112;11.622;2024-01-30T05:12:26;-0.70;99.90
9658;DHT22;4867;48.112;11.622;2024-01-30T05:14:55;-0.60;99.90
9658;DHT22;4867;48.112;11.622;2024-01-30T05:17:22;-0.60;99.90
9658;DHT22;4867;48.112;11.622;2024-01-30T05:19:49;-0.60;99.90
9658;DHT22;4867;48.112;11.622;2024-01-30T05:22:17;-0.60;99.90
9658;DHT22;4867;48.112;11.622;2024-01-30T05:24:46;-0.60;99.90
9658;DHT22;4867;48.112;11.622;2024-01-30T05:27:13;-0.60;99.90
9658;DHT22;4867;48.112;11.622;2024-01-30T05:29:42;-0.60;99.90
9658;DHT22;4867;48.112;11.622;2024-01-30T05:32:09;-0.60;99.90
9658;DHT22;4867;48.112;11.622;2024-01-30T05:34:37;-0.60;99.90
9658;DHT22;4867;48.112;11.622;2024-01-30T05:37:05;-0.40;99.90
9658;DHT22;4867;48.112;11.622;2024-01-30T05:39:33;-0.60;99.90
9658;DHT22;4867;48.112;11.622;2024-01-30T05:42:00;-0.60;99.90
9658;DHT22;4867;48.112;11.622;2024-01-30T05:44:28;-0.50;99.90
9658;DHT22;4867;48.112;11.622;2024-01-30T05:46:55;-0.50;99.90
9658;DHT22;4867;48.112;11.622;2024-01-30T05:49:23;-0.50;99.90
9658;DHT22;4867;48.112;11.622;2024-01-30T05:51:50;-0.50;99.90
9658;DHT22;4867;48.112;11.622;2024-01-30T05:54:18;-0.60;99.90
9658;DHT22;4867;48.112;11.622;2024-01-30T05:56:46;-0.60;99.90
9658;DHT22;4867;48.112;11.622;2024-01-30T05:59:13;-0.50;99.90
9658;DHT22;4867;48.112;11.622;2024-01-30T06:01:48;-0.50;99.90
9658;DHT22;4867;48.112;11.622;2024-01-30T06:04:16;-0.40;99.90
9658;DHT22;4867;48.112;11.622;2024-01-30T06:06:43;-0.50;99.90
9658;DHT22;4867;48.112;11.622;2024-01-30T06:09:11;-0.50;99.90
9658;DHT22;4867;48.112;11.622;2024-01-30T06:11:40;-0.50;99.90
9658;DHT22;4867;48.112;11.622;2024-01-30T06:14:10;-0.50;99.90
9658;DHT22;4867;48.112;11.622;2024-01-30T06:16:37;-0.50;99.90
9658;DHT22;4867;48.112;11.622;2024-01-30T06:19:04;-0.50;99.90
9658;DHT22;4867;48.112;11.622;2024-01-30T06:21:33;-0.60;99.90
9658;DHT22;4867;48.112;11.622;2024-01-30T06:24:04;-0.60;99.90
9658;DHT22;4867;48.112;11.622;2024-01-30T06:26:32;-0.60;99.90
9658;DHT22;4867;48.112;11.622;2024-01-30T06:28:59;-0.70;99.90
9658;DHT22;4867;48.112;11.622;2024-01-30T06:31:26;-0.70;99.90
9658;DHT22;4867;48.112;11.622;2024-01-30T06:33:54;-0.70;99.90
9658;DHT22;4867;48.112;11.622;2024-01-30T06:36:21;-0.60;99.90
9658;DHT22;4867;48.112;11.622;2024-01-30T06:38:49;-0.60;99.90
9658;DHT22;4867;48.112;11.622;2024-01-30T06:41:16;-0.60;99.90
9658;DHT22;4867;48.112;11.622;2024-01-30T06:43:44;-0.40;99.90
9658;DHT22;4867;48.112;11.622;2024-01-30T06:46:12;-0.50;99.90
9658;DHT22;4867;48.112;11.622;2024-01-30T06:48:40;-0.40;99.90
9658;DHT22;4867;48.112;11.622;2024-01-30T06:51:08;-0.40;99.90
9658;DHT22;4867;48.112;11.622;2024-01-30T06:53:35;-0.30;99.90
9658;DHT22;4867;48.112;11.622;2024-01-30T06:56:03;-0.40;99.90
9658;DHT22;4867;48.112;11.622;2024-01-30T06:58:30;-0.30;99.90
9658;DHT22;4867;48.112;11.622;2024-01-30T07:00:58;-0.30;99.90
9658;DHT22;4867;48.112;11.622;2024-01-30T07:03:25;-0.30;99.90
9658;DHT22;4867;48.112;11.622;2024-01-30T07:05:53;-0.20;99.90
9658;DHT22;4867;48.112;11.622;2024-01-30T07:08:20;-0.10;99.90
9658;DHT22;4867;48.112;11.622;2024-01-30T07:10:48;-0.20;99.90
9658;DHT22;4867;48.112;11.622;2024-01-30T07:13:15;-0.20;99.90
9658;DHT22;4867;48.112;11.622;2024-01-30T07:15:43;-0.20;99.90
9658;DHT22;4867;48.112;11.622;2024-01-30T07:18:11;-0.20;99.90
9658;DHT22;4867;48.112;11.622;2024-01-30T07:20:40;0.00;99.90
9658;DHT22;4867;48.112;11.622;2024-01-30T07:23:13;-0.10;99.90
9658;DHT22;4867;48.112;11.622;2024-01-30T07:25:44;0.10;99.90
9658;DHT22;4867;48.112;11.622;2024-01-30T07:28:20;0.00;99.90
9658;DHT22;4867;48.112;11.622;2024-01-30T07:30:48;0.10;99.90
9658;DHT22;4867;48.112;11.622;2024-01-30T07:33:16;0.10;99.90
9658;DHT22;4867;48.112;11.622;2024-01-30T07:35:46;0.20;99.90
9658;DHT22;4867;48.112;11.622;2024-01-30T07:38:14;0.20;99.90
9658;DHT22;4867;48.112;11.622;2024-01-30T07:40:41;0.30;99.90
9658;DHT22;4867;48.112;11.622;2024-01-30T07:43:09;0.40;99.90
9658;DHT22;4867;48.112;11.622;2024-01-30T07:45:36;0.40;99.90
9658;DHT22;4867;48.112;11.622;2024-01-30T07:48:05;0.40;99.90
9658;DHT22;4867;48.112;11.622;2024-01-30T07:50:33;0.60;99.90
9658;DHT22;4867;48.112;11.622;2024-01-30T07:53:01;0.70;99.90
9658;DHT22;4867;48.112;11.622;2024-01-30T07:55:29;0.80;99.90
9658;DHT22;4867;48.112;11.622;2024-01-30T07:57:59;0.80;99.90
9658;DHT22;4867;48.112;11.622;2024-01-30T08:00:27;1.00;99.90
9658;DHT22;4867;48.112;11.622;2024-01-30T08:02:56;1.00;99.90
9658;DHT22;4867;48.112;11.622;2024-01-30T08:05:24;1.20;99.90
9658;DHT22;4867;48.112;11.622;2024-01-30T08:07:52;1.20;99.90
9658;DHT22;4867;48.112;11.622;2024-01-30T08:10:20;1.40;99.90
9658;DHT22;4867;48.112;11.622;2024-01-30T08:12:48;1.50;99.90
9658;DHT22;4867;48.112;11.622;2024-01-30T08:15:15;1.50;99.90
9658;DHT22;4867;48.112;11.622;2024-01-30T08:17:43;1.60;99.90
9658;DHT22;4867;48.112;11.622;2024-01-30T08:20:12;1.70;99.90
9658;DHT22;4867;48.112;11.622;2024-01-30T08:22:40;1.80;99.90
9658;DHT22;4867;48.112;11.622;2024-01-30T08:25:08;1.90;99.90
9658;DHT22;4867;48.112;11.622;2024-01-30T08:27:37;2.10;99.90
9658;DHT22;4867;48.112;11.622;2024-01-30T08:30:07;2.40;99.90
9658;DHT22;4867;48.112;11.622;2024-01-30T08:32:34;2.40;99.90
9658;DHT22;4867;48.112;11.622;2024-01-30T08:35:02;2.60;99.90
9658;DHT22;4867;48.112;11.622;2024-01-30T08:37:34;2.70;99.90
9658;DHT22;4867;48.112;11.622;2024-01-30T08:40:02;2.80;99.90
9658;DHT22;4867;48.112;11.622;2024-01-30T08:42:32;2.90;99.90
9658;DHT22;4867;48.112;11.622;2024-01-30T08:45:00;3.10;99.90
9658;DHT22;4867;48.112;11.622;2024-01-30T08:47:28;3.20;99.90
9658;DHT22;4867;48.112;11.622;2024-01-30T08:49:55;3.30;99.90
9658;DHT22;4867;48.112;11.622;2024-01-30T08:52:22;3.50;99.90
9658;DHT22;4867;48.112;11.622;2024-01-30T08:54:51;3.60;99.90
9658;DHT22;4867;48.112;11.622;2024-01-30T08:57:19;3.70;99.90
9658;DHT22;4867;48.112;11.622;2024-01-30T08:59:46;3.80;99.90
9658;DHT22;4867;48.112;11.622;2024-01-30T09:02:15;4.00;99.90
9658;DHT22;4867;48.112;11.622;2024-01-30T09:04:43;4.00;99.90
9658;DHT22;4867;48.112;11.622;2024-01-30T09:07:11;4.20;99.90
9658;DHT22;4867;48.112;11.622;2024-01-30T09:09:41;4.30;99.90
9658;DHT22;4867;48.112;11.622;2024-01-30T09:12:09;4.50;99.90
9658;DHT22;4867;48.112;11.622;2024-01-30T09:14:39;4.50;99.90
9658;DHT22;4867;48.112;11.622;2024-01-30T09:17:08;4.70;99.90
9658;DHT22;4867;48.112;11.622;2024-01-30T09:19:35;4.80;99.90
9658;DHT22;4867;48.112;11.622;2024-01-30T09:22:03;5.00;99.90
9658;DHT22;4867;48.112;11.622;2024-01-30T09:24:31;5.10;99.90
9658;DHT22;4867;48.112;11.622;2024-01-30T09:26:58;5.20;99.90
9658;DHT22;4867;48.112;11.622;2024-01-30T09:29:26;5.40;99.90
9658;DHT22;4867;48.112;11.622;2024-01-30T09:31:54;5.50;99.90
9658;DHT22;4867;48.112;11.622;2024-01-30T09:34:21;5.60;99.90
9658;DHT22;4867;48.112;11.622;2024-01-30T09:36:49;5.70;99.90
9658;DHT22;4867;48.112;11.622;2024-01-30T09:39:16;5.90;99.90
9658;DHT22;4867;48.112;11.622;2024-01-30T09:41:49;6.00;99.90
9658;DHT22;4867;48.112;11.622;2024-01-30T09:44:20;6.10;99.90
9658;DHT22;4867;48.112;11.622;2024-01-30T09:46:48;6.20;99.90
9658;DHT22;4867;48.112;11.622;2024-01-30T09:49:16;6.40;99.90
9658;DHT22;4867;48.112;11.622;2024-01-30T09:51:48;6.50;99.90
9658;DHT22;4867;48.112;11.622;2024-01-30T09:54:17;6.60;99.90
9658;DHT22;4867;48.112;11.622;2024-01-30T09:56:44;6.70;99.90
9658;DHT22;4867;48.112;11.622;2024-01-30T09:59:12;6.90;99.90
9658;DHT22;4867;48.112;11.622;2024-01-30T10:01:40;7.00;99.90
9658;DHT22;4867;48.112;11.622;2024-01-30T10:04:08;7.10;99.90
9658;DHT22;4867;48.112;11.622;2024-01-30T10:06:37;7.30;99.90
9658;DHT22;4867;48.112;11.622;2024-01-30T10:09:05;7.40;99.90
9658;DHT22;4867;48.112;11.622;2024-01-30T10:11:32;7.50;99.90
9658;DHT22;4867;48.112;11.622;2024-01-30T10:14:00;7.70;99.90
9658;DHT22;4867;48.112;11.622;2024-01-30T10:16:28;7.70;99.90
9658;DHT22;4867;48.112;11.622;2024-01-30T10:18:55;7.90;99.90
9658;DHT22;4867;48.112;11.622;2024-01-30T10:21:25;8.00;99.90
9658;DHT22;4867;48.112;11.622;2024-01-30T10:23:52;8.10;99.90
9658;DHT22;4867;48.112;11.622;2024-01-30T10:26:20;8.20;99.90
9658;DHT22;4867;48.112;11.622;2024-01-30T10:28:48;8.30;99.90
9658;DHT22;4867;48.112;11.622;2024-01-30T10:31:17;8.40;99.90
9658;DHT22;4867;48.112;11.622;2024-01-30T10:33:46;8.50;99.90
9658;DHT22;4867;48.112;11.622;2024-01-30T10:36:14;8.50;99.90
9658;DHT22;4867;48.112;11.622;2024-01-30T10:38:49;8.70;99.90
9658;DHT22;4867;48.112;11.622;2024-01-30T10:41:20;8.70;99.90
9658;DHT22;4867;48.112;11.622;2024-01-30T10:44:02;8.80;99.90
9658;DHT22;4867;48.112;11.622;2024-01-30T10:46:32;8.90;99.90
9658;DHT22;4867;48.112;11.622;2024-01-30T10:49:04;9.00;99.90
9658;DHT22;4867;48.112;11.622;2024-01-30T10:51:32;9.00;99.90
9658;DHT22;4867;48.112;11.622;2024-01-30T10:54:03;9.00;99.90
9658;DHT22;4867;48.112;11.622;2024-01-30T10:56:32;9.10;99.90
9658;DHT22;4867;48.112;11.622;2024-01-30T10:59:01;9.10;99.90
9658;DHT22;4867;48.112;11.622;2024-01-30T11:01:30;9.20;99.90
9658;DHT22;4867;48.112;11.622;2024-01-30T11:03:58;9.30;99.90
9658;DHT22;4867;48.112;11.622;2024-01-30T11:06:26;9.40;99.90
9658;DHT22;4867;48.112;11.622;2024-01-30T11:09:02;9.50;99.90
9658;DHT22;4867;48.112;11.622;2024-01-30T11:11:31;9.60;99.90
9658;DHT22;4867;48.112;11.622;2024-01-30T11:14:01;9.70;99.90
9658;DHT22;4867;48.112;11.622;2024-01-30T11:16:32;9.70;99.90
9658;DHT22;4867;48.112;11.622;2024-01-30T11:19:00;9.90;99.90
9658;DHT22;4867;48.112;11.622;2024-01-30T11:21:30;10.00;99.90
9658;DHT22;4867;48.112;11.622;2024-01-30T11:23:57;10.10;99.90
9658;DHT22;4867;48.112;11.622;2024-01-30T11:26:31;10.10;99.90
9658;DHT22;4867;48.112;11.622;2024-01-30T11:29:07;10.30;99.90
9658;DHT22;4867;48.112;11.622;2024-01-30T11:40:23;10.80;99.90
9658;DHT22;4867;48.112;11.622;2024-01-30T11:42:55;10.90;99.90
9658;DHT22;4867;48.112;11.622;2024-01-30T11:45:25;11.10;99.90
9658;DHT22;4867;48.112;11.622;2024-01-30T11:47:54;11.30;99.90
9658;DHT22;4867;48.112;11.622;2024-01-30T11:50:26;11.40;99.90
9658;DHT22;4867;48.112;11.622;2024-01-30T11:52:54;11.50;99.70
9658;DHT22;4867;48.112;11.622;2024-01-30T11:55:23;11.60;99.90
9658;DHT22;4867;48.112;11.622;2024-01-30T11:57:51;11.60;99.90
9658;DHT22;4867;48.112;11.622;2024-01-30T12:00:19;11.70;99.90
9658;DHT22;4867;48.112;11.622;2024-01-30T12:02:55;11.70;99.90
9658;DHT22;4867;48.112;11.622;2024-01-30T12:05:26;11.70;99.20
9658;DHT22;4867;48.112;11.622;2024-01-30T12:07:58;11.70;98.30
9658;DHT22;4867;48.112;11.622;2024-01-30T12:10:31;11.80;99.80
9658;DHT22;4867;48.112;11.622;2024-01-30T12:13:03;11.90;99.90
9658;DHT22;4867;48.112;11.622;2024-01-30T12:15:32;11.90;99.90
9658;DHT22;4867;48.112;11.622;2024-01-30T12:18:06;12.00;99.60
9658;DHT22;4867;48.112;11.622;2024-01-30T12:20:37;12.10;97.40
9658;DHT22;4867;48.112;11.622;2024-01-30T12:23:06;12.20;99.50
9658;DHT22;4867;48.112;11.622;2024-01-30T12:25:38;12.30;99.90
9658;DHT22;4867;48.112;11.622;2024-01-30T12:28:07;12.40;99.60
9658;DHT22;4867;48.112;11.622;2024-01-30T12:30:36;12.50;99.90
9658;DHT22;4867;48.112;11.622;2024-01-30T12:33:06;12.70;99.90
9658;DHT22;4867;48.112;11.622;2024-01-30T12:35:38;12.70;99.30
9658;DHT22;4867;48.112;11.622;2024-01-30T12:38:29;12.80;98.30
9658;DHT22;4867;48.112;11.622;2024-01-30T12:40:59;12.90;98.60
9658;DHT22;4867;48.112;11.622;2024-01-30T12:43:28;12.80;96.00
9658;DHT22;4867;48.112;11.622;2024-01-30T12:46:05;12.80;93.90
9658;DHT22;4867;48.112;11.622;2024-01-30T12:48:34;12.80;95.40
9658;DHT22;4867;48.112;11.622;2024-01-30T12:51:02;12.90;95.50
9658;DHT22;4867;48.112;11.622;2024-01-30T12:53:30;12.90;94.00
9658;DHT22;4867;48.112;11.622;2024-01-30T12:55:57;12.90;94.00
9658;DHT22;4867;48.112;11.622;2024-01-30T12:58:26;12.90;94.00
9658;DHT22;4867;48.112;11.622;2024-01-30T13:00:54;13.00;94.00
9658;DHT22;4867;48.112;11.622;2024-01-30T13:03:22;13.10;94.80
9658;DHT22;4867;48.112;11.622;2024-01-30T13:05:49;13.20;94.00
9658;DHT22;4867;48.112;11.622;2024-01-30T13:08:17;13.20;95.80
9658;DHT22;4867;48.112;11.622;2024-01-30T13:10:45;13.20;94.50
9658;DHT22;4867;48.112;11.622;2024-01-30T13:13:16;13.30;94.60
9658;DHT22;4867;48.112;11.622;2024-01-30T13:15:48;13.40;95.20
9658;DHT22;4867;48.112;11.622;2024-01-30T13:18:16;13.50;93.50
9658;DHT22;4867;48.112;11.622;2024-01-30T13:20:44;13.50;93.10
9658;DHT22;4867;48.112;11.622;2024-01-30T13:23:15;13.50;93.60
9658;DHT22;4867;48.112;11.622;2024-01-30T13:25:42;13.60;94.60
9658;DHT22;4867;48.112;11.622;2024-01-30T13:28:10;13.60;93.10
9658;DHT22;4867;48.112;11.622;2024-01-30T13:30:38;13.70;93.20
9658;DHT22;4867;48.112;11.622;2024-01-30T13:33:05;13.70;92.20
9658;DHT22;4867;48.112;11.622;2024-01-30T13:35:37;13.80;92.20
9658;DHT22;4867;48.112;11.622;2024-01-30T13:38:05;13.80;93.30
9658;DHT22;4867;48.112;11.622;2024-01-30T13:40:33;13.80;93.00
9658;DHT22;4867;48.112;11.622;2024-01-30T13:43:01;13.70;91.70
9658;DHT22;4867;48.112;11.622;2024-01-30T13:45:28;13.70;90.90
9658;DHT22;4867;48.112;11.622;2024-01-30T13:47:57;13.60;90.80
9658;DHT22;4867;48.112;11.622;2024-01-30T13:50:25;13.50;88.20
9658;DHT22;4867;48.112;11.622;2024-01-30T13:52:52;13.50;89.70
9658;DHT22;4867;48.112;11.622;2024-01-30T13:55:20;13.60;89.60
9658;DHT22;4867;48.112;11.622;2024-01-30T13:57:48;13.60;88.60
9658;DHT22;4867;48.112;11.622;2024-01-30T14:00:18;13.60;87.60
9658;DHT22;4867;48.112;11.622;2024-01-30T14:02:45;13.60;91.20
9658;DHT22;4867;48.112;11.622;2024-01-30T14:05:13;13.60;90.10
9658;DHT22;4867;48.112;11.622;2024-01-30T14:07:43;13.50;90.90
9658;DHT22;4867;48.112;11.622;2024-01-30T14:10:13;13.40;84.90
9658;DHT22;4867;48.112;11.622;2024-01-30T14:12:42;13.40;85.60
9658;DHT22;4867;48.112;11.622;2024-01-30T14:15:11;13.30;86.60
9658;DHT22;4867;48.112;11.622;2024-01-30T14:17:54;13.30;87.70
9658;DHT22;4867;48.112;11.622;2024-01-30T14:20:21;13.30;87.40
9658;DHT22;4867;48.112;11.622;2024-01-30T14:22:49;13.30;87.80
9658;DHT22;4867;48.112;11.622;2024-01-30T14:25:16;13.30;84.70
9658;DHT22;4867;48.112;11.622;2024-01-30T14:27:44;13.30;86.80
9658;DHT22;4867;48.112;11.622;2024-01-30T14:30:11;13.30;87.80
9658;DHT22;4867;48.112;11.622;2024-01-30T14:32:39;13.30;86.60
9658;DHT22;4867;48.112;11.622;2024-01-30T14:35:08;13.20;89.60
9658;DHT22;4867;48.112;11.622;2024-01-30T14:37:37;13.20;92.30
9658;DHT22;4867;48.112;11.622;2024-01-30T14:40:05;13.20;93.20
9658;DHT22;4867;48.112;11.622;2024-01-30T14:42:35;13.10;93.10
9658;DHT22;4867;48.112;11.622;2024-01-30T14:45:04;13.00;93.80
9658;DHT22;4867;48.112;11.622;2024-01-30T14:47:31;13.00;94.60
9658;DHT22;4867;48.112;11.622;2024-01-30T14:49:59;12.90;94.50
9658;DHT22;4867;48.112;11.622;2024-01-30T14:52:26;12.80;95.00
9658;DHT22;4867;48.112;11.622;2024-01-30T14:54:54;12.70;95.40
9658;DHT22;4867;48.112;11.622;2024-01-30T14:57:25;12.70;95.90
9658;DHT22;4867;48.112;11.622;2024-01-30T14:59:56;12.60;96.10
9658;DHT22;4867;48.112;11.622;2024-01-30T15:05:21;12.60;96.40
9658;DHT22;4867;48.112;11.622;2024-01-30T15:07:50;12.50;96.70
9658;DHT22;4867;48.112;11.622;2024-01-30T15:10:17;12.50;96.80
9658;DHT22;4867;48.112;11.622;2024-01-30T15:12:45;12.40;96.90
9658;DHT22;4867;48.112;11.622;2024-01-30T15:15:12;12.30;97.00
9658;DHT22;4867;48.112;11.622;2024-01-30T15:17:40;12.30;97.40
9658;DHT22;4867;48.112;11.622;2024-01-30T15:20:08;12.20;97.60
9658;DHT22;4867;48.112;11.622;2024-01-30T15:22:35;12.10;94.60
9658;DHT22;4867;48.112;11.622;2024-01-30T15:25:03;12.10;94.30
9658;DHT22;4867;48.112;11.622;2024-01-30T15:27:31;12.10;93.90
9658;DHT22;4867;48.112;11.622;2024-01-30T15:29:58;12.00;93.50
9658;DHT22;4867;48.112;11.622;2024-01-30T15:32:26;11.90;93.80
9658;DHT22;4867;48.112;11.622;2024-01-30T15:34:53;11.90;94.30
9658;DHT22;4867;48.112;11.622;2024-01-30T15:37:22;11.90;93.80
9658;DHT22;4867;48.112;11.622;2024-01-30T15:39:49;11.80;94.00
9658;DHT22;4867;48.112;11.622;2024-01-30T15:42:17;11.80;94.40
9658;DHT22;4867;48.112;11.622;2024-01-30T15:44:44;11.70;94.70
9658;DHT22;4867;48.112;11.622;2024-01-30T15:47:11;11.60;95.30
9658;DHT22;4867;48.112;11.622;2024-01-30T15:49:39;11.60;96.30
9658;DHT22;4867;48.112;11.622;2024-01-30T15:52:06;11.50;96.40
9658;DHT22;4867;48.112;11.622;2024-01-30T15:54:40;11.40;96.30
9658;DHT22;4867;48.112;11.622;2024-01-30T15:57:07;11.30;96.00
9658;DHT22;4867;48.112;11.622;2024-01-30T15:59:36;11.20;96.30
9658;DHT22;4867;48.112;11.622;2024-01-30T16:02:04;11.00;96.60
9658;DHT22;4867;48.112;11.622;2024-01-30T16:04:31;10.90;96.80
9658;DHT22;4867;48.112;11.622;2024-01-30T16:06:58;10.70;97.00
9658;DHT22;4867;48.112;11.622;2024-01-30T16:09:26;10.60;96.80
9658;DHT22;4867;48.112;11.622;2024-01-30T16:11:53;10.50;98.00